createdAt,value
2023-03-29T00:00:24.065Z,99.63
2023-03-29T00:02:53.391Z,99.98
2023-03-29T00:05:25.653Z,100.00
2023-03-29T00:07:54.509Z,100.00
2023-03-29T00:10:24.973Z,100.00
2023-03-29T00:12:53.493Z,100.00
2023-03-29T00:15:23.861Z,100.00
2023-03-29T00:17:53.015Z,100.00
2023-03-29T00:20:21.608Z,100.00
2023-03-29T00:22:50.421Z,100.00
2023-03-29T00:25:19.234Z,100.00
2023-03-29T00:27:49.249Z,100.00
2023-03-29T00:30:20.842Z,100.00
2023-03-29T00:32:49.511Z,100.00
2023-03-29T00:35:18.303Z,100.00
2023-03-29T00:37:51.060Z,100.00
2023-03-29T00:40:19.928Z,100.00
2023-03-29T00:42:50.142Z,100.00
2023-03-29T00:45:20.100Z,100.00
2023-03-29T00:47:51.405Z,100.00
2023-03-29T00:50:22.604Z,100.00
2023-03-29T00:52:57.504Z,100.00
2023-03-29T00:55:28.339Z,100.00
2023-03-29T00:58:01.092Z,100.00
2023-03-29T01:00:33.372Z,100.00
2023-03-29T01:03:03.713Z,100.00
2023-03-29T01:05:35.535Z,100.00
2023-03-29T01:08:06.928Z,100.00
2023-03-29T01:10:38.826Z,100.00
2023-03-29T01:13:12.966Z,100.00
2023-03-29T01:15:43.630Z,100.00
2023-03-29T01:18:12.308Z,100.00
2023-03-29T01:20:49.352Z,100.00
2023-03-29T01:23:38.344Z,100.00
2023-03-29T01:26:16.215Z,100.00
2023-03-29T01:28:52.219Z,100.00
2023-03-29T01:31:24.760Z,100.00
2023-03-29T01:33:57.086Z,100.00
2023-03-29T01:36:28.518Z,100.00
2023-03-29T01:39:05.058Z,100.00
2023-03-29T01:41:42.684Z,100.00
2023-03-29T01:44:15.487Z,100.00
2023-03-29T01:46:47.681Z,100.00
2023-03-29T01:49:20.850Z,100.00
2023-03-29T01:51:53.807Z,100.00
2023-03-29T01:54:26.734Z,100.00
2023-03-29T01:56:55.434Z,100.00
2023-03-29T01:59:31.270Z,100.00
2023-03-29T02:02:00.513Z,100.00
2023-03-29T02:04:31.961Z,100.00
2023-03-29T02:07:01.842Z,100.00
2023-03-29T02:09:31.763Z,100.00
2023-03-29T02:12:02.361Z,100.00
2023-03-29T02:14:32.750Z,100.00
2023-03-29T02:17:19.872Z,100.00
2023-03-29T02:19:50.735Z,100.00
2023-03-29T02:22:25.181Z,100.00
2023-03-29T02:24:56.787Z,100.00
2023-03-29T02:27:27.559Z,100.00
2023-03-29T02:29:58.102Z,100.00
2023-03-29T02:32:29.352Z,100.00
2023-03-29T02:35:01.639Z,100.00
2023-03-29T02:37:31.540Z,100.00
2023-03-29T02:40:01.034Z,100.00
2023-03-29T02:42:31.092Z,100.00
2023-03-29T02:45:02.046Z,100.00
2023-03-29T02:47:34.139Z,100.00
2023-03-29T02:50:03.126Z,100.00
2023-03-29T02:52:36.718Z,100.00
2023-03-29T02:55:07.101Z,100.00
2023-03-29T02:57:38.443Z,100.00
2023-03-29T03:00:10.715Z,100.00
2023-03-29T03:02:39.700Z,100.00
2023-03-29T03:05:58.018Z,100.00
2023-03-29T03:08:53.126Z,100.00
2023-03-29T03:11:21.908Z,100.00
2023-03-29T03:13:50.673Z,100.00
2023-03-29T03:16:20.926Z,100.00
2023-03-29T03:18:51.419Z,100.00
2023-03-29T03:21:20.698Z,100.00
2023-03-29T03:23:49.976Z,100.00
2023-03-29T03:26:19.193Z,100.00
2023-03-29T03:28:48.489Z,100.00
2023-03-29T03:31:17.944Z,100.00
2023-03-29T03:33:48.437Z,100.00
2023-03-29T03:36:16.777Z,100.00
2023-03-29T03:38:45.416Z,100.00
2023-03-29T03:41:13.987Z,100.00
2023-03-29T03:43:49.531Z,100.00
2023-03-29T03:46:18.391Z,100.00
2023-03-29T03:48:49.255Z,100.00
2023-03-29T03:51:17.935Z,100.00
2023-03-29T03:53:46.886Z,100.00
2023-03-29T03:56:16.559Z,100.00
2023-03-29T03:58:45.217Z,100.00
2023-03-29T04:01:19.421Z,100.00
2023-03-29T04:03:49.958Z,100.00
2023-03-29T04:06:44.335Z,100.00
2023-03-29T04:09:13.360Z,100.00
2023-03-29T04:11:41.641Z,100.00
2023-03-29T04:14:10.726Z,100.00
2023-03-29T04:16:39.201Z,100.00
2023-03-29T04:19:09.491Z,100.00
2023-03-29T04:21:38.264Z,100.00
2023-03-29T04:24:07.278Z,100.00
2023-03-29T04:26:36.255Z,100.00
2023-03-29T04:29:06.433Z,100.00
2023-03-29T04:31:35.672Z,100.00
2023-03-29T04:34:04.696Z,100.00
2023-03-29T04:36:34.833Z,100.00
2023-03-29T04:39:04.360Z,100.00
2023-03-29T04:41:51.673Z,100.00
2023-03-29T04:44:20.226Z,100.00
2023-03-29T04:46:48.838Z,100.00
2023-03-29T04:49:18.015Z,100.00
2023-03-29T04:51:47.898Z,100.00
2023-03-29T04:54:16.865Z,100.00
2023-03-29T04:56:45.462Z,100.00
2023-03-29T04:59:17.613Z,100.00
2023-03-29T05:01:46.471Z,100.00
2023-03-29T05:04:24.881Z,100.00
2023-03-29T05:06:57.736Z,100.00
2023-03-29T05:09:27.212Z,100.00
2023-03-29T05:11:55.902Z,100.00
2023-03-29T05:14:24.901Z,100.00
2023-03-29T05:16:53.665Z,100.00
2023-03-29T05:19:24.727Z,100.00
2023-03-29T05:21:54.659Z,100.00
2023-03-29T05:24:23.377Z,100.00
2023-03-29T05:26:53.088Z,99.84
2023-03-29T05:29:24.901Z,100.00
2023-03-29T05:31:54.349Z,100.00
2023-03-29T05:34:23.063Z,100.00
2023-03-29T05:36:52.125Z,100.00
2023-03-29T05:39:23.613Z,100.00
2023-03-29T05:41:52.183Z,100.00
2023-03-29T05:44:20.921Z,100.00
2023-03-29T05:46:49.466Z,100.00
2023-03-29T05:49:18.044Z,100.00
2023-03-29T05:51:46.912Z,100.00
2023-03-29T05:54:16.608Z,100.00
2023-03-29T05:56:47.968Z,100.00
2023-03-29T05:59:18.498Z,100.00
2023-03-29T06:01:48.156Z,100.00
2023-03-29T06:04:24.640Z,100.00
2023-03-29T06:06:53.457Z,100.00
2023-03-29T06:09:22.245Z,100.00
2023-03-29T06:11:52.556Z,100.00
2023-03-29T06:14:23.397Z,100.00
2023-03-29T06:16:52.481Z,100.00
2023-03-29T06:19:22.952Z,100.00
2023-03-29T06:21:53.248Z,100.00
2023-03-29T06:24:21.962Z,100.00
2023-03-29T06:26:52.611Z,100.00
2023-03-29T06:29:21.320Z,100.00
2023-03-29T06:31:55.534Z,99.15
2023-03-29T06:34:24.469Z,97.60
2023-03-29T06:36:53.186Z,96.14
2023-03-29T06:39:21.627Z,94.66
2023-03-29T06:41:51.666Z,93.75
2023-03-29T06:44:20.133Z,93.03
2023-03-29T06:46:48.909Z,92.00
2023-03-29T06:49:17.510Z,91.51
2023-03-29T06:51:46.503Z,90.32
2023-03-29T06:54:15.141Z,89.08
2023-03-29T06:56:43.755Z,89.48
2023-03-29T06:59:13.845Z,88.71
2023-03-29T07:01:43.066Z,88.67
2023-03-29T07:04:14.306Z,88.72
2023-03-29T07:06:48.481Z,88.09
2023-03-29T07:09:19.444Z,88.12
2023-03-29T07:11:51.360Z,87.36
2023-03-29T07:14:21.576Z,86.31
2023-03-29T07:16:52.158Z,86.66
2023-03-29T07:19:26.008Z,86.36
2023-03-29T07:21:55.218Z,85.27
2023-03-29T07:24:24.045Z,86.46
2023-03-29T07:27:03.334Z,86.93
2023-03-29T07:29:34.542Z,88.15
2023-03-29T07:32:02.992Z,88.29
2023-03-29T07:34:32.856Z,87.93
2023-03-29T07:37:01.771Z,89.62
2023-03-29T07:39:31.232Z,90.42
2023-03-29T07:42:01.091Z,91.55
2023-03-29T07:44:30.126Z,91.91
2023-03-29T07:47:00.161Z,94.09
2023-03-29T07:49:29.338Z,94.31
2023-03-29T07:51:58.196Z,93.46
2023-03-29T07:54:27.192Z,95.10
2023-03-29T07:56:56.274Z,96.94
2023-03-29T07:59:25.088Z,98.13
2023-03-29T08:01:53.795Z,99.83
2023-03-29T08:04:24.125Z,100.00
2023-03-29T08:06:54.495Z,100.00
2023-03-29T08:09:23.280Z,100.00
2023-03-29T08:11:52.083Z,100.00
2023-03-29T08:14:21.970Z,100.00
2023-03-29T08:16:51.680Z,100.00
2023-03-29T08:19:20.207Z,100.00
2023-03-29T08:21:50.237Z,100.00
2023-03-29T08:24:20.926Z,100.00
2023-03-29T08:26:50.377Z,100.00
2023-03-29T08:29:22.557Z,100.00
2023-03-29T08:31:51.372Z,100.00
2023-03-29T08:34:32.100Z,100.00
2023-03-29T08:37:02.106Z,100.00
2023-03-29T08:39:31.985Z,100.00
2023-03-29T08:42:13.647Z,100.00
2023-03-29T08:44:51.904Z,100.00
2023-03-29T08:47:23.340Z,100.00
2023-03-29T08:49:54.891Z,100.00
2023-03-29T08:52:35.135Z,99.72
2023-03-29T08:55:05.947Z,100.00
2023-03-29T08:57:37.234Z,100.00
2023-03-29T09:00:08.104Z,100.00
2023-03-29T09:02:39.309Z,99.58
2023-03-29T09:05:20.713Z,98.65
2023-03-29T09:07:50.872Z,99.31
2023-03-29T09:10:20.045Z,100.00
2023-03-29T09:12:58.954Z,99.83
2023-03-29T09:15:30.576Z,99.73
2023-03-29T09:18:23.342Z,98.80
2023-03-29T09:20:56.007Z,100.00
2023-03-29T09:23:40.248Z,99.57
2023-03-29T09:26:14.182Z,99.27
2023-03-29T09:28:48.534Z,98.45
2023-03-29T09:31:23.290Z,98.70
2023-03-29T09:33:56.199Z,97.47
2023-03-29T09:36:26.837Z,97.94
2023-03-29T09:38:57.289Z,98.28
2023-03-29T09:41:30.660Z,98.46
2023-03-29T09:44:02.158Z,99.55
2023-03-29T09:46:37.920Z,98.78
2023-03-29T09:49:08.732Z,98.95
2023-03-29T09:51:37.719Z,98.37
2023-03-29T09:54:08.037Z,97.76
2023-03-29T09:56:36.638Z,98.10
2023-03-29T09:59:07.727Z,98.56
2023-03-29T10:01:39.916Z,100.00
2023-03-29T10:04:09.989Z,100.00
2023-03-29T10:06:39.645Z,100.00
2023-03-29T10:09:16.739Z,100.00
2023-03-29T10:11:51.850Z,100.00
2023-03-29T10:14:22.703Z,100.00
2023-03-29T10:16:57.423Z,100.00
2023-03-29T10:19:30.543Z,100.00
2023-03-29T10:22:03.033Z,100.00
2023-03-29T10:24:33.512Z,99.72
2023-03-29T10:27:05.034Z,100.00
2023-03-29T10:29:37.950Z,100.00
2023-03-29T10:32:16.730Z,100.00
2023-03-29T10:34:47.060Z,100.00
2023-03-29T10:37:16.928Z,100.00
2023-03-29T10:39:47.769Z,100.00
2023-03-29T10:42:18.401Z,100.00
2023-03-29T10:44:57.805Z,100.00
2023-03-29T10:47:27.328Z,100.00
2023-03-29T10:49:59.400Z,100.00
2023-03-29T10:52:28.573Z,100.00
2023-03-29T10:55:00.319Z,100.00
2023-03-29T10:57:35.523Z,100.00
2023-03-29T11:00:09.740Z,100.00
2023-03-29T11:03:10.454Z,100.00
2023-03-29T11:05:43.304Z,100.00
2023-03-29T11:08:35.768Z,100.00
2023-03-29T11:11:17.824Z,100.00
2023-03-29T11:13:50.688Z,99.76
2023-03-29T11:16:26.059Z,99.70
2023-03-29T11:19:07.217Z,100.00
2023-03-29T11:21:41.104Z,100.00
2023-03-29T11:24:29.795Z,100.00
2023-03-29T11:27:12.471Z,99.98
2023-03-29T11:29:45.896Z,100.00
2023-03-29T11:32:17.182Z,100.00
2023-03-29T11:34:57.588Z,100.00
2023-03-29T11:37:31.266Z,100.00
2023-03-29T11:40:08.213Z,100.00
2023-03-29T11:42:42.101Z,100.00
2023-03-29T11:45:15.330Z,100.00
2023-03-29T11:47:45.759Z,100.00
2023-03-29T11:50:19.750Z,100.00
2023-03-29T11:52:54.790Z,100.00
2023-03-29T11:55:26.338Z,100.00
2023-03-29T11:58:00.228Z,100.00
2023-03-29T12:00:32.232Z,100.00
2023-03-29T12:03:05.359Z,100.00
2023-03-29T12:05:36.841Z,100.00
2023-03-29T12:08:07.230Z,100.00
2023-03-29T12:10:38.165Z,100.00
2023-03-29T12:13:12.903Z,100.00
2023-03-29T12:15:48.268Z,100.00
2023-03-29T12:18:20.150Z,100.00
2023-03-29T12:20:54.174Z,98.37
2023-03-29T12:23:23.179Z,98.27
2023-03-29T12:25:55.697Z,97.25
2023-03-29T12:28:40.212Z,97.00
2023-03-29T12:31:15.657Z,96.25
2023-03-29T12:34:38.810Z,94.76
2023-03-29T12:37:19.560Z,94.82
2023-03-29T12:39:48.979Z,94.03
2023-03-29T12:42:19.171Z,93.11
2023-03-29T12:44:52.126Z,91.96
2023-03-29T12:47:23.669Z,91.07
2023-03-29T12:49:57.097Z,89.24
2023-03-29T12:52:29.315Z,89.65
2023-03-29T12:55:00.522Z,87.15
2023-03-29T12:57:40.221Z,88.53
2023-03-29T13:00:23.893Z,87.53
2023-03-29T13:03:05.608Z,86.86
2023-03-29T13:05:36.540Z,86.53
2023-03-29T13:08:23.834Z,86.53
2023-03-29T13:10:56.527Z,85.69
2023-03-29T13:13:28.863Z,86.20
2023-03-29T13:16:11.642Z,85.96
2023-03-29T13:18:51.914Z,85.55
2023-03-29T13:21:24.911Z,85.89
2023-03-29T13:24:01.857Z,86.00
2023-03-29T13:26:38.682Z,85.57
2023-03-29T13:29:18.587Z,86.43
2023-03-29T13:31:54.610Z,85.50
2023-03-29T13:34:31.877Z,85.23
2023-03-29T13:37:06.238Z,82.36
2023-03-29T13:39:40.030Z,83.55
2023-03-29T13:42:19.968Z,81.94
2023-03-29T13:44:50.076Z,80.68
2023-03-29T13:47:48.864Z,78.84
2023-03-29T13:50:38.769Z,77.94
2023-03-29T13:53:12.447Z,77.64
2023-03-29T13:55:47.499Z,79.06
2023-03-29T13:58:25.448Z,79.17
2023-03-29T14:00:56.958Z,78.38
2023-03-29T14:03:30.094Z,77.41
2023-03-29T14:06:03.214Z,78.21
2023-03-29T14:08:34.706Z,76.22
2023-03-29T14:11:07.200Z,73.88
2023-03-29T14:13:36.715Z,75.39
2023-03-29T14:16:11.931Z,75.81
2023-03-29T14:18:44.783Z,72.50
2023-03-29T14:21:14.952Z,71.24
2023-03-29T14:23:46.385Z,71.76
2023-03-29T14:26:18.767Z,70.59
2023-03-29T14:28:49.227Z,70.75
2023-03-29T14:31:22.364Z,70.75
2023-03-29T14:33:56.046Z,69.36
2023-03-29T14:36:25.852Z,67.98
2023-03-29T14:38:59.958Z,68.57
2023-03-29T14:41:37.856Z,66.81
2023-03-29T14:44:08.311Z,69.29
2023-03-29T14:46:37.565Z,67.68
2023-03-29T14:49:07.893Z,68.68
2023-03-29T14:51:37.119Z,70.29
2023-03-29T14:54:06.117Z,71.23
2023-03-29T14:56:35.158Z,73.11
2023-03-29T14:59:05.277Z,74.02
2023-03-29T15:01:34.105Z,72.72
2023-03-29T15:04:09.373Z,73.94
2023-03-29T15:06:42.453Z,73.76
2023-03-29T15:09:16.378Z,74.66
2023-03-29T15:11:52.744Z,74.25
2023-03-29T15:14:22.552Z,72.93
2023-03-29T15:16:52.930Z,74.24
2023-03-29T15:19:23.072Z,75.14
2023-03-29T15:22:10.238Z,75.89
2023-03-29T15:24:44.139Z,77.43
2023-03-29T15:27:18.565Z,78.29
2023-03-29T15:29:48.625Z,79.97
2023-03-29T15:32:24.215Z,80.90
2023-03-29T15:35:02.474Z,81.75
2023-03-29T15:37:38.034Z,83.06
2023-03-29T15:40:09.934Z,83.52
2023-03-29T15:42:38.899Z,83.11
2023-03-29T15:45:16.795Z,82.99
2023-03-29T15:47:46.056Z,83.28
2023-03-29T15:50:15.829Z,83.56
2023-03-29T15:52:46.211Z,83.65
2023-03-29T15:55:14.551Z,84.35
2023-03-29T15:57:46.242Z,85.16
2023-03-29T16:00:16.743Z,85.29
2023-03-29T16:02:45.638Z,85.55
2023-03-29T16:05:14.618Z,85.91
2023-03-29T16:07:43.397Z,86.05
2023-03-29T16:10:16.410Z,86.04
2023-03-29T16:12:45.811Z,85.53
2023-03-29T16:15:19.322Z,86.01
2023-03-29T16:17:48.264Z,86.41
2023-03-29T16:20:20.244Z,86.92
2023-03-29T16:22:49.171Z,86.63
2023-03-29T16:25:22.897Z,86.67
2023-03-29T16:27:52.754Z,87.10
2023-03-29T16:30:21.809Z,88.23
2023-03-29T16:32:50.589Z,88.28
2023-03-29T16:35:23.464Z,88.58
2023-03-29T16:37:52.259Z,89.21
2023-03-29T16:40:22.512Z,89.34
2023-03-29T16:42:55.243Z,90.70
2023-03-29T16:45:24.212Z,91.91
2023-03-29T16:47:52.979Z,91.93
2023-03-29T16:50:22.156Z,92.09
2023-03-29T16:52:52.998Z,91.79
2023-03-29T16:55:24.870Z,92.29
2023-03-29T16:57:54.284Z,92.23
2023-03-29T17:00:25.880Z,93.35
2023-03-29T17:02:54.578Z,93.46
2023-03-29T17:05:23.382Z,94.16
2023-03-29T17:07:52.728Z,94.09
2023-03-29T17:10:32.225Z,94.58
2023-03-29T17:13:01.115Z,95.33
2023-03-29T17:15:31.843Z,95.99
2023-03-29T17:18:01.125Z,96.25
2023-03-29T17:20:30.006Z,96.34
2023-03-29T17:22:58.959Z,96.65
2023-03-29T17:25:27.579Z,97.04
2023-03-29T17:27:57.838Z,97.23
2023-03-29T17:30:26.316Z,97.75
2023-03-29T17:32:57.334Z,97.51
2023-03-29T17:35:26.089Z,97.88
2023-03-29T17:37:54.829Z,97.91
2023-03-29T17:40:23.977Z,97.86
2023-03-29T17:42:53.333Z,98.83
2023-03-29T17:45:26.653Z,99.52
2023-03-29T17:47:58.691Z,99.86
2023-03-29T17:50:27.588Z,100.00
2023-03-29T17:52:56.503Z,100.00
2023-03-29T17:55:25.320Z,100.00
2023-03-29T17:57:54.408Z,100.00
2023-03-29T18:00:23.526Z,100.00
2023-03-29T18:02:53.594Z,100.00
2023-03-29T18:05:22.060Z,100.00
2023-03-29T18:07:51.040Z,100.00
2023-03-29T18:10:19.817Z,100.00
2023-03-29T18:12:48.513Z,100.00
2023-03-29T18:15:17.434Z,100.00
2023-03-29T18:17:46.204Z,100.00
2023-03-29T18:20:17.347Z,100.00
2023-03-29T18:22:47.050Z,100.00
2023-03-29T18:25:18.530Z,100.00
2023-03-29T18:27:47.292Z,100.00
2023-03-29T18:30:16.969Z,100.00
2023-03-29T18:32:45.773Z,100.00
2023-03-29T18:35:16.897Z,100.00
2023-03-29T18:37:45.649Z,100.00
2023-03-29T18:40:16.196Z,100.00
2023-03-29T18:42:45.268Z,100.00
2023-03-29T18:45:14.227Z,100.00
2023-03-29T18:47:42.866Z,100.00
2023-03-29T18:50:13.528Z,100.00
2023-03-29T18:52:43.766Z,100.00
2023-03-29T18:55:20.336Z,100.00
2023-03-29T18:57:49.270Z,100.00
2023-03-29T19:00:18.898Z,100.00
2023-03-29T19:02:51.178Z,100.00
2023-03-29T19:05:20.211Z,100.00
2023-03-29T19:07:50.378Z,100.00
2023-03-29T19:10:19.618Z,100.00
2023-03-29T19:12:48.740Z,100.00
2023-03-29T19:15:18.054Z,100.00
2023-03-29T19:17:47.714Z,100.00
2023-03-29T19:20:16.890Z,100.00
2023-03-29T19:22:45.898Z,100.00
2023-03-29T19:25:16.131Z,100.00
2023-03-29T19:27:44.776Z,100.00
2023-03-29T19:30:14.529Z,100.00
2023-03-29T19:32:43.635Z,100.00
2023-03-29T19:35:15.502Z,100.00
2023-03-29T19:37:44.261Z,100.00
2023-03-29T19:40:13.861Z,100.00
2023-03-29T19:42:47.711Z,100.00
2023-03-29T19:45:16.944Z,100.00
2023-03-29T19:47:47.779Z,100.00
2023-03-29T19:50:16.871Z,100.00
2023-03-29T19:52:45.699Z,100.00
2023-03-29T19:55:14.327Z,100.00
2023-03-29T19:57:44.605Z,100.00
2023-03-29T20:00:15.221Z,100.00
2023-03-29T20:02:44.182Z,100.00
2023-03-29T20:05:14.201Z,100.00
2023-03-29T20:07:42.628Z,100.00
2023-03-29T20:10:11.644Z,100.00
2023-03-29T20:12:42.319Z,100.00
2023-03-29T20:15:13.468Z,100.00
2023-03-29T20:17:43.698Z,100.00
2023-03-29T20:20:14.237Z,100.00
2023-03-29T20:22:47.842Z,100.00
2023-03-29T20:25:18.602Z,100.00
2023-03-29T20:27:53.382Z,100.00
2023-03-29T20:30:23.999Z,100.00
2023-03-29T20:32:52.542Z,100.00
2023-03-29T20:35:21.472Z,100.00
2023-03-29T20:37:50.554Z,100.00
2023-03-29T20:40:21.160Z,100.00
2023-03-29T20:42:50.256Z,100.00
2023-03-29T20:45:21.414Z,100.00
2023-03-29T20:47:56.280Z,100.00
2023-03-29T20:50:27.553Z,100.00
2023-03-29T20:52:57.121Z,100.00
2023-03-29T20:55:25.663Z,100.00
2023-03-29T20:57:58.572Z,100.00
2023-03-29T21:00:27.492Z,100.00
2023-03-29T21:02:59.195Z,100.00
2023-03-29T21:05:28.539Z,100.00
2023-03-29T21:07:57.324Z,100.00
2023-03-29T21:10:27.744Z,100.00
2023-03-29T21:13:02.824Z,100.00
2023-03-29T21:15:33.953Z,100.00
2023-03-29T21:18:05.080Z,100.00
2023-03-29T21:20:33.748Z,100.00
2023-03-29T21:23:02.263Z,100.00
2023-03-29T21:25:30.926Z,100.00
2023-03-29T21:27:59.920Z,100.00
2023-03-29T21:30:30.753Z,100.00
2023-03-29T21:33:01.735Z,100.00
2023-03-29T21:35:33.508Z,100.00
2023-03-29T21:38:02.533Z,100.00
2023-03-29T21:40:31.225Z,100.00
2023-03-29T21:43:00.011Z,100.00
2023-03-29T21:45:28.692Z,100.00
2023-03-29T21:47:57.595Z,100.00
2023-03-29T21:50:26.607Z,100.00
2023-03-29T21:52:57.081Z,100.00
2023-03-29T21:55:25.457Z,100.00
2023-03-29T21:57:54.150Z,100.00
2023-03-29T22:00:22.768Z,100.00
2023-03-29T22:02:51.945Z,100.00
2023-03-29T22:05:20.905Z,100.00
2023-03-29T22:07:50.832Z,100.00
2023-03-29T22:10:23.220Z,100.00
2023-03-29T22:12:53.013Z,100.00
2023-03-29T22:15:22.171Z,100.00
2023-03-29T22:17:53.529Z,100.00
2023-03-29T22:20:22.566Z,100.00
2023-03-29T22:22:52.632Z,100.00
2023-03-29T22:25:25.321Z,100.00
2023-03-29T22:27:54.348Z,100.00
2023-03-29T22:30:23.349Z,100.00
2023-03-29T22:32:52.352Z,100.00
2023-03-29T22:35:21.117Z,100.00
2023-03-29T22:37:49.937Z,100.00
2023-03-29T22:40:18.923Z,100.00
2023-03-29T22:42:49.091Z,100.00
2023-03-29T22:45:17.855Z,100.00
2023-03-29T22:47:47.161Z,100.00
2023-03-29T22:50:15.762Z,100.00
2023-03-29T22:52:44.745Z,100.00
2023-03-29T22:55:13.271Z,100.00
2023-03-29T22:57:41.847Z,100.00
2023-03-29T23:00:13.460Z,100.00
2023-03-29T23:02:42.434Z,100.00
2023-03-29T23:05:17.404Z,100.00
2023-03-29T23:07:46.045Z,100.00
2023-03-29T23:10:15.097Z,100.00
2023-03-29T23:12:43.938Z,100.00
2023-03-29T23:15:14.748Z,100.00
2023-03-29T23:17:44.321Z,100.00
2023-03-29T23:20:14.183Z,100.00
2023-03-29T23:22:43.283Z,100.00
2023-03-29T23:25:12.320Z,100.00
2023-03-29T23:27:41.459Z,100.00
2023-03-29T23:30:12.089Z,100.00
2023-03-29T23:32:46.182Z,100.00
2023-03-29T23:35:17.059Z,100.00
2023-03-29T23:37:46.306Z,100.00
2023-03-29T23:40:16.443Z,100.00
2023-03-29T23:42:48.680Z,100.00
2023-03-29T23:45:18.682Z,100.00
2023-03-29T23:47:48.808Z,100.00
2023-03-29T23:50:17.280Z,100.00
2023-03-29T23:52:46.929Z,100.00
2023-03-29T23:55:15.773Z,100.00
2023-03-29T23:57:44.757Z,100.00
